createdAt,value
2023-04-18T00:01:09.786Z,102747.88
2023-04-18T00:03:38.961Z,102749.78
2023-04-18T00:06:05.944Z,102752.72
2023-04-18T00:08:33.841Z,102745.16
2023-04-18T00:11:00.540Z,102738.25
2023-04-18T00:13:28.468Z,102744.78
2023-04-18T00:15:55.177Z,102752.97
2023-04-18T00:18:22.112Z,102746.91
2023-04-18T00:20:48.635Z,102748.00
2023-04-18T00:23:16.382Z,102742.78
2023-04-18T00:25:42.877Z,102743.63
2023-04-18T00:28:09.910Z,102738.38
2023-04-18T00:30:36.491Z,102749.28
2023-04-18T00:33:04.311Z,102742.78
2023-04-18T00:35:31.958Z,102750.16
2023-04-18T00:37:59.129Z,102743.84
2023-04-18T00:40:25.765Z,102734.00
2023-04-18T00:42:52.292Z,102747.06
2023-04-18T00:45:18.887Z,102738.66
2023-04-18T00:47:45.452Z,102739.94
2023-04-18T00:50:12.831Z,102740.81
2023-04-18T00:52:39.516Z,102728.47
2023-04-18T00:55:08.076Z,102734.97
2023-04-18T00:57:34.983Z,102728.66
2023-04-18T01:00:02.420Z,102721.56
2023-04-18T01:02:31.294Z,102719.66
2023-04-18T01:05:03.102Z,102729.16
2023-04-18T01:07:31.830Z,102732.47
2023-04-18T01:09:58.771Z,102718.25
2023-04-18T01:12:25.384Z,102724.53
2023-04-18T01:14:51.833Z,102723.13
2023-04-18T01:17:19.365Z,102719.31
2023-04-18T01:19:48.439Z,102719.56
2023-04-18T01:22:20.419Z,102725.00
2023-04-18T01:24:46.970Z,102713.50
2023-04-18T01:27:14.318Z,102721.69
2023-04-18T01:29:41.041Z,102716.25
2023-04-18T01:32:08.031Z,102719.22
2023-04-18T01:34:34.586Z,102714.59
2023-04-18T01:37:01.217Z,102712.13
2023-04-18T01:39:28.525Z,102710.69
2023-04-18T01:41:55.182Z,102711.50
2023-04-18T01:44:21.697Z,102708.78
2023-04-18T01:46:48.235Z,102706.53
2023-04-18T01:49:15.051Z,102703.81
2023-04-18T01:51:43.111Z,102713.66
2023-04-18T01:54:09.774Z,102719.13
2023-04-18T01:56:36.469Z,102713.88
2023-04-18T01:59:03.569Z,102709.50
2023-04-18T02:01:30.111Z,102719.59
2023-04-18T02:03:56.742Z,102706.19
2023-04-18T02:06:23.433Z,102713.31
2023-04-18T02:08:49.922Z,102699.09
2023-04-18T02:11:16.439Z,102699.34
2023-04-18T02:13:42.998Z,102705.63
2023-04-18T02:16:13.688Z,102701.25
2023-04-18T02:18:43.422Z,102700.38
2023-04-18T02:21:11.228Z,102696.25
2023-04-18T02:23:37.915Z,102704.44
2023-04-18T02:26:04.491Z,102704.44
2023-04-18T02:28:31.059Z,102706.34
2023-04-18T02:31:00.324Z,102697.34
2023-04-18T02:33:26.813Z,102701.09
2023-04-18T02:35:53.324Z,102695.91
2023-04-18T02:38:19.838Z,102699.47
2023-04-18T02:40:46.381Z,102692.94
2023-04-18T02:43:13.280Z,102685.84
2023-04-18T02:45:39.793Z,102690.94
2023-04-18T02:48:08.898Z,102690.94
2023-04-18T02:50:35.539Z,102698.28
2023-04-18T02:53:02.417Z,102693.91
2023-04-18T02:55:28.994Z,102710.25
2023-04-18T02:57:55.991Z,102701.00
2023-04-18T03:00:22.614Z,102702.09
2023-04-18T03:02:49.393Z,102691.41
2023-04-18T03:05:16.603Z,102695.22
2023-04-18T03:07:43.056Z,102696.50
2023-04-18T03:10:10.292Z,102700.06
2023-04-18T03:12:36.911Z,102704.56
2023-04-18T03:15:03.653Z,102698.88
2023-04-18T03:17:30.393Z,102705.16
2023-04-18T03:19:56.967Z,102699.13
2023-04-18T03:22:23.528Z,102699.34
2023-04-18T03:24:50.095Z,102711.09
2023-04-18T03:27:16.693Z,102717.38
2023-04-18T03:29:43.351Z,102712.97
2023-04-18T03:32:09.865Z,102706.34
2023-04-18T03:34:36.441Z,102703.63
2023-04-18T03:37:02.975Z,102704.69
2023-04-18T03:39:29.532Z,102711.78
2023-04-18T03:41:56.174Z,102716.06
2023-04-18T03:44:22.720Z,102713.94
2023-04-18T03:46:49.385Z,102710.38
2023-04-18T03:49:16.118Z,102716.06
2023-04-18T03:51:49.535Z,102709.78
2023-04-18T03:54:17.147Z,102724.47
2023-04-18T03:56:44.350Z,102720.69
2023-04-18T03:59:12.231Z,102712.75
2023-04-18T04:01:38.850Z,102724.94
2023-04-18T04:04:05.960Z,102716.56
2023-04-18T04:06:32.564Z,102714.03
2023-04-18T04:08:59.148Z,102715.34
2023-04-18T04:11:26.041Z,102724.84
2023-04-18T04:13:52.975Z,102717.03
2023-04-18T04:16:19.616Z,102722.47
2023-04-18T04:18:46.282Z,102719.38
2023-04-18T04:21:12.784Z,102730.84
2023-04-18T04:23:41.992Z,102721.03
2023-04-18T04:26:08.628Z,102718.91
2023-04-18T04:28:36.103Z,102715.13
2023-04-18T04:31:03.485Z,102720.31
2023-04-18T04:33:29.953Z,102721.41
2023-04-18T04:35:56.743Z,102716.56
2023-04-18T04:38:23.295Z,102722.56
2023-04-18T04:40:49.957Z,102721.50
2023-04-18T04:43:17.036Z,102723.41
2023-04-18T04:45:45.668Z,102719.84
2023-04-18T04:48:12.195Z,102719.84
2023-04-18T04:50:41.799Z,102726.38
2023-04-18T04:53:08.891Z,102724.22
2023-04-18T04:55:35.534Z,102722.81
2023-04-18T04:58:02.274Z,102727.78
2023-04-18T05:00:28.880Z,102723.88
2023-04-18T05:02:57.525Z,102729.56
2023-04-18T05:05:24.229Z,102726.00
2023-04-18T05:07:50.832Z,102733.56
2023-04-18T05:10:17.433Z,102733.34
2023-04-18T05:12:44.257Z,102735.25
2023-04-18T05:15:11.085Z,102728.94
2023-04-18T05:17:37.644Z,102736.66
2023-04-18T05:20:05.311Z,102739.38
2023-04-18T05:22:32.481Z,102737.25
2023-04-18T05:24:59.035Z,102740.00
2023-04-18T05:27:28.074Z,102741.06
2023-04-18T05:29:54.699Z,102742.09
2023-04-18T05:32:21.574Z,102747.78
2023-04-18T05:34:48.599Z,102747.78
2023-04-18T05:37:15.345Z,102744.59
2023-04-18T05:39:42.053Z,102740.69
2023-04-18T05:42:08.658Z,102743.66
2023-04-18T05:44:35.748Z,102746.38
2023-04-18T05:47:02.366Z,102744.72
2023-04-18T05:49:29.236Z,102750.38
2023-04-18T05:51:56.570Z,102751.22
2023-04-18T05:54:25.143Z,102749.34
2023-04-18T05:56:51.787Z,102750.53
2023-04-18T05:59:18.392Z,102757.03
2023-04-18T06:01:44.972Z,102755.13
2023-04-18T06:04:11.914Z,102762.47
2023-04-18T06:06:38.854Z,102758.31
2023-04-18T06:09:05.502Z,102762.69
2023-04-18T06:11:35.736Z,102760.44
2023-04-18T06:14:03.307Z,102751.22
2023-04-18T06:16:29.939Z,102753.97
2023-04-18T06:18:59.666Z,102769.22
2023-04-18T06:21:27.913Z,102763.78
2023-04-18T06:23:56.086Z,102759.63
2023-04-18T06:26:22.839Z,102765.06
2023-04-18T06:28:49.324Z,102762.59
2023-04-18T06:31:16.453Z,102768.03
2023-04-18T06:33:42.967Z,102762.59
2023-04-18T06:36:09.868Z,102771.59
2023-04-18T06:38:36.412Z,102766.97
2023-04-18T06:41:02.983Z,102766.50
2023-04-18T06:43:29.512Z,102771.84
2023-04-18T06:45:56.714Z,102769.94
2023-04-18T06:48:23.424Z,102780.31
2023-04-18T06:50:50.158Z,102773.22
2023-04-18T06:53:16.666Z,102771.59
2023-04-18T06:55:43.354Z,102773.69
2023-04-18T06:58:10.175Z,102775.59
2023-04-18T07:00:36.794Z,102770.41
2023-04-18T07:03:11.381Z,102769.56
2023-04-18T07:05:40.992Z,102773.34
2023-04-18T07:08:08.193Z,102763.31
2023-04-18T07:10:34.957Z,102770.41
2023-04-18T07:13:01.705Z,102768.75
2023-04-18T07:15:28.517Z,102763.75
2023-04-18T07:17:55.176Z,102775.22
2023-04-18T07:20:22.026Z,102767.31
2023-04-18T07:22:51.211Z,102782.81
2023-04-18T07:25:17.902Z,102782.81
2023-04-18T07:27:46.740Z,102770.03
2023-04-18T07:30:13.725Z,102766.25
2023-04-18T07:32:40.293Z,102769.56
2023-04-18T07:35:07.671Z,102776.91
2023-04-18T07:37:34.320Z,102777.50
2023-04-18T07:40:03.148Z,102770.63
2023-04-18T07:42:29.777Z,102766.25
2023-04-18T07:45:01.389Z,102770.41
2023-04-18T07:47:30.180Z,102766.03
2023-04-18T07:49:57.604Z,102766.84
2023-04-18T07:52:24.505Z,102780.69
2023-04-18T07:54:51.327Z,102764.94
2023-04-18T07:57:17.948Z,102769.78
2023-04-18T07:59:44.541Z,102769.22
2023-04-18T08:02:11.098Z,102765.16
2023-04-18T08:04:37.885Z,102763.31
2023-04-18T08:07:04.533Z,102773.59
2023-04-18T08:09:34.421Z,102778.19
2023-04-18T08:12:01.017Z,102780.69
2023-04-18T08:14:27.567Z,102777.75
2023-04-18T08:16:54.211Z,102775.84
2023-04-18T08:19:20.902Z,102777.75
2023-04-18T08:21:51.183Z,102773.59
2023-04-18T08:24:17.917Z,102776.56
2023-04-18T08:26:44.651Z,102779.50
2023-04-18T08:29:11.715Z,102783.03
2023-04-18T08:31:39.615Z,102780.53
2023-04-18T08:34:06.244Z,102778.56
2023-04-18T08:36:34.862Z,102772.66
2023-04-18T08:39:01.883Z,102776.22
2023-04-18T08:41:30.805Z,102779.75
2023-04-18T08:43:57.522Z,102774.88
2023-04-18T08:46:24.108Z,102772.41
2023-04-18T08:48:51.453Z,102768.84
2023-04-18T08:51:18.048Z,102772.78
2023-04-18T08:53:45.111Z,102773.38
2023-04-18T08:56:14.708Z,102769.34
2023-04-18T08:58:41.340Z,102770.75
2023-04-18T09:01:08.983Z,102765.56
2023-04-18T09:03:41.272Z,102772.66
2023-04-18T09:06:14.446Z,102763.66
2023-04-18T09:08:43.623Z,102761.31
2023-04-18T09:11:24.002Z,102760.69
2023-04-18T09:13:50.586Z,102753.13
2023-04-18T09:16:20.728Z,102764.59
2023-04-18T09:19:13.861Z,102757.72
2023-04-18T09:21:44.333Z,102768.88
2023-04-18T09:24:23.769Z,102764.72
2023-04-18T09:26:53.726Z,102774.56
2023-04-18T09:29:23.834Z,102767.22
2023-04-18T09:32:08.333Z,102768.03
2023-04-18T09:34:38.309Z,102762.59
2023-04-18T09:37:07.711Z,102775.03
2023-04-18T09:39:34.602Z,102767.94
2023-04-18T09:42:02.564Z,102759.97
2023-04-18T09:44:29.341Z,102757.88
2023-04-18T09:46:56.097Z,102756.78
2023-04-18T09:49:23.559Z,102756.78
2023-04-18T09:51:54.848Z,102757.41
2023-04-18T09:54:24.394Z,102764.50
2023-04-18T09:56:53.492Z,102752.16
2023-04-18T09:59:47.805Z,102750.28
2023-04-18T10:02:23.112Z,102753.00
2023-04-18T10:04:51.842Z,102749.81
2023-04-18T10:07:18.922Z,102744.34
2023-04-18T10:09:49.440Z,102747.69
2023-04-18T10:12:17.111Z,102745.19
2023-04-18T10:14:44.309Z,102743.53
2023-04-18T10:17:11.808Z,102754.19
2023-04-18T10:19:42.106Z,102747.34
2023-04-18T10:22:08.734Z,102753.59
2023-04-18T10:24:56.034Z,102750.06
2023-04-18T10:27:58.000Z,102743.78
2023-04-18T10:31:03.665Z,102735.94
2023-04-18T10:33:42.813Z,102733.72
2023-04-18T10:36:09.573Z,102738.34
2023-04-18T10:38:38.857Z,102731.22
2023-04-18T10:41:24.105Z,102732.63
2023-04-18T10:44:09.611Z,102731.00
2023-04-18T10:46:41.599Z,102737.47
2023-04-18T10:49:26.849Z,102724.72
2023-04-18T10:52:00.852Z,102723.41
2023-04-18T10:54:58.432Z,102717.13
2023-04-18T10:57:26.474Z,102724.22
2023-04-18T10:59:54.787Z,102719.84
2023-04-18T11:02:25.854Z,102710.59
2023-04-18T11:05:01.650Z,102718.78
2023-04-18T11:07:44.812Z,102715.22
2023-04-18T11:10:12.064Z,102721.28
2023-04-18T11:12:40.753Z,102715.84
2023-04-18T11:15:17.634Z,102712.63
2023-04-18T11:17:44.494Z,102714.50
2023-04-18T11:20:14.203Z,102717.22
2023-04-18T11:22:49.028Z,102719.13
2023-04-18T11:25:17.033Z,102701.75
2023-04-18T11:27:45.910Z,102709.06
2023-04-18T11:30:14.346Z,102702.31
2023-04-18T11:32:41.583Z,102703.41
2023-04-18T11:35:09.927Z,102703.97
2023-04-18T11:37:38.261Z,102708.84
2023-04-18T11:40:08.588Z,102713.22
2023-04-18T11:42:37.307Z,102704.78
2023-04-18T11:45:04.460Z,102715.56
2023-04-18T11:47:33.999Z,102702.78
2023-04-18T11:50:01.440Z,102703.63
2023-04-18T11:52:29.540Z,102719.97
2023-04-18T11:54:57.245Z,102713.66
2023-04-18T11:57:29.092Z,102703.63
2023-04-18T11:59:57.842Z,102708.00
2023-04-18T12:02:27.250Z,102713.47
2023-04-18T12:04:57.052Z,102702.78
2023-04-18T12:07:39.999Z,102700.06
2023-04-18T12:10:09.559Z,102707.19
2023-04-18T12:12:36.790Z,102705.28
2023-04-18T12:15:04.796Z,102711.31
2023-04-18T12:17:31.778Z,102711.31
2023-04-18T12:20:03.698Z,102708.59
2023-04-18T12:22:49.640Z,102719.25
2023-04-18T12:25:23.516Z,102716.53
2023-04-18T12:28:00.414Z,102710.84
2023-04-18T12:30:31.276Z,102709.19
2023-04-18T12:33:02.495Z,102705.63
2023-04-18T12:35:30.751Z,102701.00
2023-04-18T12:37:59.568Z,102719.25
2023-04-18T12:40:27.256Z,102706.47
2023-04-18T12:42:55.343Z,102704.56
2023-04-18T12:45:23.096Z,102708.34
2023-04-18T12:47:51.475Z,102704.56
2023-04-18T12:50:20.716Z,102700.19
2023-04-18T12:52:47.688Z,102713.56
2023-04-18T12:55:15.079Z,102698.03
2023-04-18T12:57:43.060Z,102704.56
2023-04-18T13:00:11.439Z,102694.25
2023-04-18T13:02:39.481Z,102704.31
2023-04-18T13:05:10.388Z,102707.03
2023-04-18T13:07:42.397Z,102698.38
2023-04-18T13:10:14.175Z,102707.38
2023-04-18T13:12:41.484Z,102705.72
2023-04-18T13:15:11.619Z,102701.09
2023-04-18T13:17:39.836Z,102706.56
2023-04-18T13:20:12.639Z,102696.50
2023-04-18T13:22:43.188Z,102700.06
2023-04-18T13:25:12.922Z,102705.50
2023-04-18T13:27:41.884Z,102706.56
2023-04-18T13:30:11.012Z,102700.28
2023-04-18T13:32:39.156Z,102710.09
2023-04-18T13:35:08.297Z,102702.78
2023-04-18T13:37:34.902Z,102703.63
2023-04-18T13:40:01.554Z,102702.78
2023-04-18T13:42:28.110Z,102695.19
2023-04-18T13:44:54.624Z,102707.72
2023-04-18T13:47:24.138Z,102696.84
2023-04-18T13:49:50.735Z,102694.94
2023-04-18T13:52:17.670Z,102703.72
2023-04-18T13:54:44.285Z,102704.53
2023-04-18T13:57:14.709Z,102702.88
2023-04-18T13:59:41.378Z,102698.00
2023-04-18T14:02:09.048Z,102706.44
2023-04-18T14:04:36.354Z,102696.16
2023-04-18T14:07:06.280Z,102694.25
2023-04-18T14:09:33.564Z,102692.56
2023-04-18T14:12:00.183Z,102692.56
2023-04-18T14:14:26.695Z,102697.78
2023-04-18T14:16:53.946Z,102693.16
2023-04-18T14:19:20.712Z,102694.00
2023-04-18T14:21:48.227Z,102688.31
2023-04-18T14:24:14.755Z,102682.63
2023-04-18T14:26:41.548Z,102683.44
2023-04-18T14:29:08.120Z,102677.75
2023-04-18T14:31:34.842Z,102674.19
2023-04-18T14:34:02.843Z,102677.50
2023-04-18T14:36:29.656Z,102682.13
2023-04-18T14:38:56.177Z,102675.34
2023-04-18T14:41:23.036Z,102665.31
2023-04-18T14:43:49.738Z,102672.63
2023-04-18T14:46:16.721Z,102674.31
2023-04-18T14:48:47.217Z,102677.88
2023-04-18T14:51:16.164Z,102678.69
2023-04-18T14:53:43.039Z,102659.59
2023-04-18T14:56:09.745Z,102667.78
2023-04-18T14:58:36.345Z,102670.25
2023-04-18T15:01:04.227Z,102665.41
2023-04-18T15:03:31.087Z,102651.78
2023-04-18T15:05:57.776Z,102658.06
2023-04-18T15:08:24.314Z,102645.25
2023-04-18T15:10:50.910Z,102645.03
2023-04-18T15:13:17.666Z,102648.59
2023-04-18T15:15:55.851Z,102638.53
2023-04-18T15:18:22.503Z,102642.06
2023-04-18T15:20:49.135Z,102646.44
2023-04-18T15:23:15.924Z,102637.44
2023-04-18T15:25:45.158Z,102648.34
2023-04-18T15:28:15.075Z,102639.09
2023-04-18T15:30:41.888Z,102638.28
2023-04-18T15:33:08.675Z,102638.28
2023-04-18T15:35:35.825Z,102630.91
2023-04-18T15:38:02.491Z,102634.50
2023-04-18T15:40:29.034Z,102639.09
2023-04-18T15:42:57.702Z,102630.09
2023-04-18T15:45:24.282Z,102630.91
2023-04-18T15:47:51.573Z,102633.66
2023-04-18T15:50:18.311Z,102630.69
2023-04-18T15:52:44.953Z,102637.22
2023-04-18T15:55:13.228Z,102655.22
2023-04-18T15:57:40.710Z,102640.78
2023-04-18T16:00:15.988Z,102642.41
2023-04-18T16:02:44.305Z,102636.72
2023-04-18T16:05:14.295Z,102642.16
2023-04-18T16:07:42.098Z,102632.34
2023-04-18T16:10:10.494Z,102637.53
2023-04-18T16:12:38.285Z,102634.00
2023-04-18T16:15:09.291Z,102623.91
2023-04-18T16:17:37.077Z,102629.97
2023-04-18T16:20:05.979Z,102632.69
2023-04-18T16:22:32.578Z,102627.22
2023-04-18T16:24:59.100Z,102631.84
2023-04-18T16:27:25.702Z,102635.41
2023-04-18T16:29:53.784Z,102632.69
2023-04-18T16:32:20.936Z,102628.06
2023-04-18T16:34:48.132Z,102635.16
2023-04-18T16:37:14.903Z,102635.16
2023-04-18T16:39:41.496Z,102625.94
2023-04-18T16:42:08.198Z,102637.88
2023-04-18T16:44:34.845Z,102637.66
2023-04-18T16:47:01.522Z,102625.66
2023-04-18T16:49:28.258Z,102638.22
2023-04-18T16:51:54.785Z,102634.66
2023-04-18T16:54:21.374Z,102624.59
2023-04-18T16:56:48.335Z,102627.31
2023-04-18T16:59:14.865Z,102619.13
2023-04-18T17:01:41.443Z,102621.88
2023-04-18T17:04:08.005Z,102622.72
2023-04-18T17:06:34.628Z,102627.91
2023-04-18T17:09:01.297Z,102617.25
2023-04-18T17:11:27.966Z,102625.19
2023-04-18T17:13:54.521Z,102621.63
2023-04-18T17:16:21.277Z,102620.81
2023-04-18T17:18:47.862Z,102615.38
2023-04-18T17:21:14.520Z,102625.19
2023-04-18T17:23:42.567Z,102625.19
2023-04-18T17:26:09.718Z,102615.09
2023-04-18T17:28:36.532Z,102623.53
2023-04-18T17:31:03.766Z,102621.38
2023-04-18T17:33:31.002Z,102624.09
2023-04-18T17:35:58.505Z,102619.47
2023-04-18T17:38:25.268Z,102624.94
2023-04-18T17:41:02.772Z,102615.69
2023-04-18T17:43:29.513Z,102626.59
2023-04-18T17:45:59.416Z,102632.06
2023-04-18T17:48:26.275Z,102624.72
2023-04-18T17:50:55.739Z,102630.16
2023-04-18T17:53:22.376Z,102632.28
2023-04-18T17:55:52.336Z,102638.47
2023-04-18T17:58:19.817Z,102631.94
2023-04-18T18:00:46.608Z,102634.09
2023-04-18T18:03:14.967Z,102640.38
2023-04-18T18:05:44.685Z,102637.06
2023-04-18T18:08:14.612Z,102638.72
2023-04-18T18:10:41.433Z,102621.28
2023-04-18T18:13:08.403Z,102634.66
2023-04-18T18:15:35.233Z,102633.28
2023-04-18T18:18:02.280Z,102638.72
2023-04-18T18:20:29.364Z,102640.38
2023-04-18T18:22:57.388Z,102633.28
2023-04-18T18:25:24.089Z,102649.63
2023-04-18T18:27:51.459Z,102643.34
2023-04-18T18:30:18.973Z,102644.19
2023-04-18T18:32:45.724Z,102644.41
2023-04-18T18:35:12.913Z,102659.13
2023-04-18T18:37:39.453Z,102644.41
2023-04-18T18:40:06.855Z,102647.97
2023-04-18T18:42:33.412Z,102645.50
2023-04-18T18:45:01.553Z,102646.31
2023-04-18T18:47:28.684Z,102658.28
2023-04-18T18:49:55.463Z,102648.22
2023-04-18T18:52:24.223Z,102654.50
2023-04-18T18:54:50.841Z,102650.94
2023-04-18T18:57:17.451Z,102660.19
2023-04-18T18:59:43.990Z,102658.28
2023-04-18T19:02:10.706Z,102658.53
2023-04-18T19:04:37.848Z,102667.78
2023-04-18T19:07:05.874Z,102659.84
2023-04-18T19:09:36.874Z,102665.06
2023-04-18T19:12:05.890Z,102681.41
2023-04-18T19:14:32.819Z,102683.31
2023-04-18T19:16:59.409Z,102668.84
2023-04-18T19:19:29.067Z,102678.69
2023-04-18T19:21:55.597Z,102682.47
2023-04-18T19:24:22.237Z,102690.88
2023-04-18T19:26:48.821Z,102678.34
2023-04-18T19:29:15.685Z,102682.97
2023-04-18T19:31:43.837Z,102688.16
2023-04-18T19:34:11.965Z,102682.97
2023-04-18T19:36:38.891Z,102685.91
2023-04-18T19:39:05.730Z,102681.31
2023-04-18T19:41:32.307Z,102694.09
2023-04-18T19:43:58.914Z,102693.22
2023-04-18T19:46:26.230Z,102698.69
2023-04-18T19:48:52.894Z,102698.94
2023-04-18T19:51:19.489Z,102698.94
2023-04-18T19:53:46.019Z,102693.75
2023-04-18T19:56:14.273Z,102695.59
2023-04-18T19:58:46.523Z,102696.22
2023-04-18T20:01:14.470Z,102696.47
2023-04-18T20:03:41.470Z,102696.69
2023-04-18T20:06:08.986Z,102695.88
2023-04-18T20:08:36.960Z,102704.84
2023-04-18T20:11:11.059Z,102695.03
2023-04-18T20:13:38.048Z,102693.38
2023-04-18T20:16:05.618Z,102705.94
2023-04-18T20:18:33.981Z,102704.03
2023-04-18T20:21:00.514Z,102698.00
2023-04-18T20:23:27.141Z,102690.66
2023-04-18T20:25:53.710Z,102699.88
2023-04-18T20:28:20.395Z,102701.31
2023-04-18T20:30:48.044Z,102697.50
2023-04-18T20:33:14.707Z,102701.56
2023-04-18T20:35:41.550Z,102698.00
2023-04-18T20:38:09.875Z,102705.13
2023-04-18T20:40:41.553Z,102702.59
2023-04-18T20:43:08.578Z,102702.59
2023-04-18T20:45:37.590Z,102703.69
2023-04-18T20:48:04.804Z,102707.25
2023-04-18T20:50:32.731Z,102708.31
2023-04-18T20:53:03.966Z,102710.22
2023-04-18T20:55:31.000Z,102713.16
2023-04-18T20:57:58.612Z,102716.75
2023-04-18T21:00:25.422Z,102714.25
2023-04-18T21:02:52.375Z,102717.78
2023-04-18T21:05:19.027Z,102715.06
2023-04-18T21:07:45.960Z,102716.97
2023-04-18T21:10:12.641Z,102721.34
2023-04-18T21:12:39.189Z,102721.03
2023-04-18T21:15:06.336Z,102725.41
2023-04-18T21:17:32.863Z,102737.94
2023-04-18T21:19:59.523Z,102730.84
2023-04-18T21:22:26.245Z,102736.50
2023-04-18T21:24:52.750Z,102740.31
2023-04-18T21:27:19.253Z,102737.59
2023-04-18T21:29:45.893Z,102731.56
2023-04-18T21:32:12.383Z,102735.69
2023-04-18T21:34:38.904Z,102733.22
2023-04-18T21:37:05.422Z,102735.34
2023-04-18T21:39:31.996Z,102739.13
2023-04-18T21:41:58.520Z,102737.50
2023-04-18T21:44:25.184Z,102738.31
2023-04-18T21:46:51.728Z,102736.66
2023-04-18T21:49:18.490Z,102738.31
2023-04-18T21:51:45.405Z,102738.53
2023-04-18T21:54:12.185Z,102737.72
2023-04-18T21:56:38.881Z,102728.72
2023-04-18T21:59:05.653Z,102739.38
2023-04-18T22:01:34.392Z,102737.72
2023-04-18T22:04:01.978Z,102733.59
2023-04-18T22:06:29.372Z,102738.22
2023-04-18T22:08:56.079Z,102731.09
2023-04-18T22:11:23.712Z,102737.59
2023-04-18T22:13:54.128Z,102739.50
2023-04-18T22:16:24.726Z,102728.81
2023-04-18T22:18:51.631Z,102737.00
2023-04-18T22:21:18.175Z,102740.81
2023-04-18T22:23:45.675Z,102742.69
2023-04-18T22:26:12.268Z,102737.25
2023-04-18T22:28:38.882Z,102732.88
2023-04-18T22:31:05.675Z,102745.69
2023-04-18T22:33:32.608Z,102737.50
2023-04-18T22:35:59.224Z,102755.50
2023-04-18T22:38:25.894Z,102744.25
2023-04-18T22:40:52.506Z,102741.53
2023-04-18T22:43:23.719Z,102738.78
2023-04-18T22:45:51.006Z,102735.47
2023-04-18T22:48:17.639Z,102740.91
2023-04-18T22:50:44.238Z,102734.88
2023-04-18T22:53:11.247Z,102743.06
2023-04-18T22:55:41.354Z,102740.56
2023-04-18T22:58:08.215Z,102749.81
2023-04-18T23:00:34.877Z,102747.09
2023-04-18T23:03:01.928Z,102742.47
2023-04-18T23:05:29.130Z,102747.91
2023-04-18T23:07:57.322Z,102744.13
2023-04-18T23:10:25.913Z,102750.06
2023-04-18T23:12:52.555Z,102736.66
2023-04-18T23:15:19.228Z,102755.50
2023-04-18T23:17:45.759Z,102745.66
2023-04-18T23:20:13.813Z,102744.00
2023-04-18T23:22:40.645Z,102749.69
2023-04-18T23:25:07.473Z,102748.03
2023-04-18T23:27:34.151Z,102747.19
2023-04-18T23:30:00.637Z,102740.91
2023-04-18T23:32:27.156Z,102736.53
2023-04-18T23:34:53.757Z,102740.09
2023-04-18T23:37:20.899Z,102752.88
2023-04-18T23:39:47.520Z,102750.41
2023-04-18T23:42:14.088Z,102749.81
2023-04-18T23:44:40.573Z,102743.53
2023-04-18T23:47:07.235Z,102753.59
2023-04-18T23:49:33.835Z,102746.50
2023-04-18T23:52:00.488Z,102749.22
2023-04-18T23:54:28.987Z,102750.28
2023-04-18T23:56:55.543Z,102744.81
2023-04-18T23:59:22.059Z,102739.38
